Time;durP1;ratioP1;P1;durP2;ratioP2;P2;SDS_P1;SDS_P2;PMS_P1;PMS_P2;Temp;Humidity;BMP_temperature;BMP_pressure;BME280_temperature;BME280_humidity;BME280_pressure;Samples;Min_cycle;Max_cycle;Signal;HPM_P1;HPM_P2
2023/09/15 00:01:02;;;;;;;15.60;10.60;;;;;;;26.57;100.00;100584.80;106549;1256;59237;-89
2023/09/15 00:03:30;;;;;;;15.10;9.80;;;;;;;26.62;100.00;100583.33;106349;1254;63689;-89
2023/09/15 00:05:58;;;;;;;18.00;10.50;;;;;;;26.62;100.00;100582.68;106309;1257;60530;-84
2023/09/15 00:08:27;;;;;;;16.30;10.90;;;;;;;26.58;100.00;100583.38;106446;1256;64088;-84
2023/09/15 00:10:54;;;;;;;16.80;10.60;;;;;;;26.57;100.00;100582.18;106688;1252;60434;-83
2023/09/15 00:13:22;;;;;;;16.20;10.70;;;;;;;26.58;100.00;100581.23;106436;1253;60321;-83
2023/09/15 00:15:51;;;;;;;15.20;10.00;;;;;;;26.58;100.00;100581.23;106508;1256;64950;-89
2023/09/15 00:18:19;;;;;;;13.70;10.10;;;;;;;26.61;100.00;100582.60;106434;1254;60787;-85
2023/09/15 00:20:47;;;;;;;14.40;10.60;;;;;;;26.69;100.00;100581.16;106439;1259;64071;-86
2023/09/15 00:23:15;;;;;;;17.10;11.00;;;;;;;26.68;100.00;100583.88;106421;1254;60517;-86
2023/09/15 00:25:45;;;;;;;17.50;10.30;;;;;;;26.65;100.00;100580.49;106501;1253;60897;-89
2023/09/15 00:28:13;;;;;;;15.00;10.90;;;;;;;26.55;100.00;100591.10;106394;1257;66521;-84
2023/09/15 00:30:41;;;;;;;15.40;10.90;;;;;;;26.50;100.00;100597.53;106348;1256;60427;-87
2023/09/15 00:33:09;;;;;;;16.80;11.70;;;;;;;26.41;100.00;100591.42;106352;1254;62531;-89
2023/09/15 00:35:36;;;;;;;18.00;11.40;;;;;;;26.31;100.00;100590.59;106503;1255;60600;-89
2023/09/15 00:38:04;;;;;;;19.80;11.70;;;;;;;26.19;100.00;100595.42;106315;1257;60475;-89
2023/09/15 00:40:32;;;;;;;17.40;10.70;;;;;;;26.12;100.00;100594.63;106450;1256;67007;-88
2023/09/15 00:43:00;;;;;;;19.00;11.40;;;;;;;26.11;100.00;100592.92;106425;1253;60411;-88
2023/09/15 00:45:28;;;;;;;16.10;11.00;;;;;;;26.14;100.00;100586.16;106527;1253;62521;-84
2023/09/15 00:47:57;;;;;;;17.40;11.50;;;;;;;26.10;100.00;100579.40;106524;1254;60541;-84
2023/09/15 00:50:28;;;;;;;17.80;11.20;;;;;;;26.04;100.00;100576.20;106404;1253;60344;-84
2023/09/15 00:53:01;;;;;;;15.80;11.70;;;;;;;25.97;100.00;100576.84;106408;1253;64932;-86
2023/09/15 00:55:29;;;;;;;17.50;11.80;;;;;;;25.85;100.00;100573.56;106222;1253;60540;-85
2023/09/15 00:57:57;;;;;;;16.20;11.30;;;;;;;25.85;100.00;100573.30;106218;1253;63710;-84
2023/09/15 01:00:26;;;;;;;19.20;11.40;;;;;;;25.93;100.00;100573.04;106217;1254;60889;-90
2023/09/15 01:02:54;;;;;;;17.80;11.10;;;;;;;26.00;100.00;100575.12;106367;1253;60518;-85
2023/09/15 01:05:23;;;;;;;15.80;10.80;;;;;;;26.15;100.00;100577.21;106409;1254;63660;-89
2023/09/15 01:07:53;;;;;;;19.40;12.10;;;;;;;26.16;100.00;100575.95;106396;1253;60408;-86
2023/09/15 01:10:22;;;;;;;17.10;11.80;;;;;;;26.21;100.00;100580.00;106479;1254;62829;-90
2023/09/15 01:12:52;;;;;;;15.10;10.70;;;;;;;26.12;100.00;100581.18;106280;1253;60408;-86
2023/09/15 01:15:28;;;;;;;17.60;11.10;;;;;;;26.12;100.00;100581.52;106456;1253;60546;-84
2023/09/15 01:18:05;;;;;;;19.00;11.80;;;;;;;26.21;100.00;100582.01;106378;1259;63845;-86
2023/09/15 01:21:24;;;;;;;15.90;10.60;;;;;;;26.16;100.00;100581.79;106364;1253;60439;-90
2023/09/15 01:24:26;;;;;;;19.20;11.00;;;;;;;26.18;100.00;100585.48;106024;1255;62490;-90
2023/09/15 01:27:13;;;;;;;17.80;11.80;;;;;;;26.18;100.00;100588.37;106474;1253;60463;-90
2023/09/15 01:29:53;;;;;;;17.70;11.20;;;;;;;26.12;100.00;100590.86;106303;1254;60577;-85
2023/09/15 01:32:21;;;;;;;17.40;11.40;;;;;;;26.04;100.00;100591.16;106378;1253;63661;-86
2023/09/15 01:34:50;;;;;;;14.80;10.20;;;;;;;25.97;100.00;100587.40;106171;1253;60788;-85
2023/09/15 01:37:19;;;;;;;14.30;10.10;;;;;;;25.99;100.00;100585.98;106303;1257;62564;-86
2023/09/15 01:39:46;;;;;;;16.80;11.00;;;;;;;25.93;100.00;100582.14;106347;1258;60918;-85
2023/09/15 01:42:14;;;;;;;15.00;10.70;;;;;;;25.82;100.00;100584.15;106546;1256;60427;-90
2023/09/15 01:44:42;;;;;;;17.30;10.60;;;;;;;25.79;100.00;100586.81;106406;1253;63626;-86
2023/09/15 01:47:12;;;;;;;16.40;10.80;;;;;;;25.71;100.00;100592.31;106313;1259;60450;-90
2023/09/15 01:56:02;;;;;;;17.80;11.30;;;;;;;25.63;100.00;100595.65;103271;1291;600566;-86
2023/09/15 01:58:29;;;;;;;14.30;10.20;;;;;;;25.65;100.00;100603.43;105533;1268;59878;-84
2023/09/15 02:00:58;;;;;;;14.50;10.70;;;;;;;25.68;100.00;100606.58;105315;1271;59389;-90
2023/09/15 02:03:26;;;;;;;19.90;13.10;;;;;;;25.73;100.00;100607.46;105605;1272;62052;-89
2023/09/15 02:06:01;;;;;;;21.90;13.30;;;;;;;25.85;100.00;100608.27;105409;1270;59122;-85
2023/09/15 02:08:28;;;;;;;25.20;15.60;;;;;;;25.89;100.00;100613.54;105461;1268;63757;-90
2023/09/15 02:10:56;;;;;;;28.70;20.50;;;;;;;25.81;100.00;100613.16;105176;1269;59216;-88
2023/09/15 02:13:24;;;;;;;24.20;15.20;;;;;;;25.73;100.00;100610.34;106013;1259;59136;-90
2023/09/15 02:15:53;;;;;;;19.30;12.60;;;;;;;25.63;100.00;100611.16;105896;1259;62101;-85
2023/09/15 02:18:22;;;;;;;17.60;12.20;;;;;;;25.62;100.00;100612.48;106026;1262;59851;-86
2023/09/15 02:20:54;;;;;;;18.30;10.80;;;;;;;25.59;100.00;100608.62;106020;1258;63699;-90
2023/09/15 02:23:22;;;;;;;14.90;10.40;;;;;;;25.67;100.00;100609.92;106023;1259;59708;-90
2023/09/15 02:25:51;;;;;;;15.30;10.20;;;;;;;25.67;100.00;100612.65;106138;1260;59586;-86
2023/09/15 02:28:21;;;;;;;16.80;10.10;;;;;;;25.61;100.00;100613.77;105980;1264;64081;-86
2023/09/15 02:30:50;;;;;;;17.00;9.90;;;;;;;25.68;100.00;100615.78;105969;1259;59755;-85
2023/09/15 02:33:19;;;;;;;14.30;10.40;;;;;;;25.57;100.00;100614.52;105993;1259;62429;-85
2023/09/15 02:35:46;;;;;;;19.00;10.20;;;;;;;25.51;100.00;100611.21;105957;1259;59918;-85
2023/09/15 02:38:14;;;;;;;16.50;9.60;;;;;;;25.47;100.00;100610.20;105975;1260;59543;-90
2023/09/15 02:40:42;;;;;;;14.40;9.70;;;;;;;25.36;100.00;100610.44;106071;1259;66580;-90
2023/09/15 02:43:10;;;;;;;14.00;9.70;;;;;;;25.57;100.00;100606.66;106073;1257;59924;-90
2023/09/15 02:45:38;;;;;;;15.20;10.30;;;;;;;25.64;100.00;100607.15;105964;1260;62549;-83
2023/09/15 02:48:06;;;;;;;12.50;9.40;;;;;;;25.57;100.00;100602.52;105947;1260;59714;-85
2023/09/15 02:50:40;;;;;;;13.30;9.40;;;;;;;25.70;100.00;100608.05;105920;1258;59656;-84
2023/09/15 02:53:09;;;;;;;13.20;9.70;;;;;;;25.71;100.00;100620.21;106039;1262;66987;-84
2023/09/15 02:55:39;;;;;;;13.30;9.40;;;;;;;25.78;100.00;100616.79;105913;1259;59616;-83
2023/09/15 02:58:07;;;;;;;15.80;9.80;;;;;;;25.87;100.00;100621.90;105979;1260;63782;-89
2023/09/15 03:00:35;;;;;;;12.90;9.00;;;;;;;25.83;100.00;100621.29;105886;1257;59913;-89
2023/09/15 03:03:03;;;;;;;12.70;8.90;;;;;;;25.76;100.00;100618.78;106001;1258;59664;-89
2023/09/15 03:05:32;;;;;;;13.90;9.70;;;;;;;25.75;100.00;100618.20;106134;1258;62993;-84
2023/09/15 03:08:00;;;;;;;17.30;10.00;;;;;;;25.80;100.00;100609.86;106016;1259;59974;-84
2023/09/15 03:10:28;;;;;;;14.60;9.60;;;;;;;25.99;100.00;100615.98;106034;1260;62551;-91
2023/09/15 03:12:55;;;;;;;13.60;9.20;;;;;;;25.89;100.00;100622.33;105997;1259;59664;-90
2023/09/15 03:15:24;;;;;;;14.40;9.40;;;;;;;25.66;100.00;100621.48;105933;1259;60060;-89
2023/09/15 03:17:53;;;;;;;12.20;9.30;;;;;;;25.59;100.00;100620.36;105883;1258;64060;-89
2023/09/15 03:20:21;;;;;;;16.50;8.80;;;;;;;25.60;100.00;100619.59;105999;1263;60000;-85
2023/09/15 03:22:50;;;;;;;14.90;10.10;;;;;;;25.65;100.00;100619.81;106067;1259;63802;-85
2023/09/15 03:25:19;;;;;;;13.00;10.10;;;;;;;25.56;100.00;100622.39;105968;1257;59717;-85
2023/09/15 03:27:46;;;;;;;15.20;10.00;;;;;;;25.56;100.00;100623.84;105833;1264;59661;-85
2023/09/15 03:30:15;;;;;;;14.10;9.40;;;;;;;25.57;100.00;100629.77;105946;1259;62852;-84
2023/09/15 03:32:44;;;;;;;16.70;10.70;;;;;;;25.60;100.00;100634.69;105915;1259;59781;-89
2023/09/15 03:35:11;;;;;;;15.20;10.50;;;;;;;25.67;100.00;100633.10;105857;1259;63812;-84
2023/09/15 03:37:40;;;;;;;13.30;10.10;;;;;;;25.65;100.00;100635.33;106146;1260;59563;-90
2023/09/15 03:40:11;;;;;;;13.40;9.80;;;;;;;25.69;100.00;100633.38;105743;1260;59617;-89
2023/09/15 03:42:39;;;;;;;15.80;10.10;;;;;;;25.81;100.00;100633.46;105942;1259;64457;-84
2023/09/15 03:45:08;;;;;;;16.40;10.90;;;;;;;25.82;100.00;100640.92;105987;1258;59769;-89
2023/09/15 03:47:36;;;;;;;14.80;9.80;;;;;;;25.94;100.00;100643.27;106027;1263;64157;-90
2023/09/15 03:50:07;;;;;;;14.90;10.20;;;;;;;25.85;100.00;100646.41;106348;1258;59752;-90
2023/09/15 03:52:36;;;;;;;16.60;11.30;;;;;;;25.84;100.00;100647.92;106010;1259;59638;-91
2023/09/15 03:55:04;;;;;;;18.20;11.20;;;;;;;25.80;100.00;100649.77;106015;1259;62957;-86
2023/09/15 03:57:32;;;;;;;18.60;11.20;;;;;;;25.63;100.00;100651.13;105999;1262;59935;-85
2023/09/15 04:00:00;;;;;;;15.20;10.40;;;;;;;25.64;100.00;100654.27;105978;1258;63744;-90
2023/09/15 04:02:38;;;;;;;16.20;10.50;;;;;;;25.73;100.00;100656.29;105893;1260;59731;-85
2023/09/15 04:05:07;;;;;;;16.30;11.20;;;;;;;25.80;100.00;100665.03;106029;1258;59677;-90
2023/09/15 04:07:34;;;;;;;14.40;10.70;;;;;;;25.85;100.00;100670.64;106045;1262;62922;-85
2023/09/15 04:10:03;;;;;;;16.70;10.30;;;;;;;25.95;100.00;100665.75;105920;1259;59915;-85
2023/09/15 04:12:32;;;;;;;14.60;10.40;;;;;;;25.90;100.00;100664.48;105997;1259;63699;-90
2023/09/15 04:15:00;;;;;;;14.80;9.70;;;;;;;25.96;100.00;100663.61;105911;1259;59644;-85
2023/09/15 04:17:28;;;;;;;15.50;11.00;;;;;;;26.05;100.00;100668.36;106070;1258;59768;-90
2023/09/15 04:19:58;;;;;;;16.80;11.10;;;;;;;26.12;100.00;100669.35;105903;1264;62907;-85
2023/09/15 04:22:27;;;;;;;17.10;10.80;;;;;;;26.20;100.00;100671.05;105994;1259;59540;-90
2023/09/15 04:24:54;;;;;;;18.10;11.40;;;;;;;26.25;100.00;100673.67;106017;1262;62426;-85
2023/09/15 04:27:22;;;;;;;16.50;11.80;;;;;;;26.37;100.00;100666.06;105931;1257;59694;-85
2023/09/15 04:29:54;;;;;;;18.60;12.80;;;;;;;26.35;100.00;100665.94;105987;1264;59587;-89
2023/09/15 04:32:26;;;;;;;23.30;13.20;;;;;;;26.21;100.00;100663.94;105859;1265;64163;-85
2023/09/15 04:34:54;;;;;;;23.20;13.40;;;;;;;26.15;100.00;100666.51;105973;1259;59961;-84
2023/09/15 04:37:22;;;;;;;20.50;13.90;;;;;;;26.16;100.00;100667.63;105937;1258;63732;-90
2023/09/15 04:39:50;;;;;;;20.70;13.80;;;;;;;26.17;100.00;100670.05;105953;1258;59540;-84
2023/09/15 04:42:18;;;;;;;19.40;13.70;;;;;;;26.20;100.00;100673.60;106160;1258;59713;-85
2023/09/15 04:44:46;;;;;;;18.30;13.10;;;;;;;26.29;100.00;100669.40;106078;1262;66334;-85
2023/09/15 04:47:28;;;;;;;21.00;13.40;;;;;;;26.43;100.00;100663.48;105966;1259;59631;-89
2023/09/15 04:49:57;;;;;;;21.90;14.80;;;;;;;26.47;100.00;100669.05;106047;1258;63766;-90
2023/09/15 04:52:25;;;;;;;21.50;15.00;;;;;;;26.52;100.00;100669.61;106039;1263;59819;-90
2023/09/15 04:54:53;;;;;;;26.80;15.70;;;;;;;26.55;100.00;100667.02;105973;1259;59315;-90
2023/09/15 04:57:21;;;;;;;22.70;15.90;;;;;;;26.61;100.00;100664.12;105848;1258;64091;-86
2023/09/15 04:59:53;;;;;;;24.40;16.70;;;;;;;26.62;100.00;100667.02;106006;1264;59600;-85
2023/09/15 05:02:24;;;;;;;27.30;17.60;;;;;;;26.57;100.00;100669.52;106018;1265;62655;-85
2023/09/15 05:04:55;;;;;;;30.30;18.20;;;;;;;26.68;100.00;100670.83;106008;1259;59739;-90
2023/09/15 05:07:24;;;;;;;30.20;18.50;;;;;;;26.67;100.00;100672.34;106019;1262;60744;-91
2023/09/15 05:09:52;;;;;;;31.40;20.60;;;;;;;26.74;100.00;100675.30;105856;1259;62830;-90
2023/09/15 05:12:21;;;;;;;29.40;19.20;;;;;;;26.83;100.00;100677.89;106128;1257;59877;-88
2023/09/15 05:14:48;;;;;;;28.80;20.30;;;;;;;26.86;100.00;100680.48;106041;1260;63753;-90
2023/09/15 05:17:17;;;;;;;31.00;19.60;;;;;;;26.85;100.00;100685.59;106222;1259;59555;-86
2023/09/15 05:19:47;;;;;;;32.30;20.10;;;;;;;26.88;100.00;100692.27;106039;1259;60035;-88
2023/09/15 05:22:15;;;;;;;30.70;19.30;;;;;;;26.86;100.00;100696.16;106026;1263;64140;-86
2023/09/15 05:24:43;;;;;;;27.80;18.90;;;;;;;26.80;100.00;100696.20;105837;1257;59767;-86
2023/09/15 05:27:11;;;;;;;31.90;19.80;;;;;;;26.86;100.00;100698.98;105988;1259;71864;-90
2023/09/15 05:29:38;;;;;;;30.30;20.50;;;;;;;26.79;100.00;100704.10;105999;1260;59788;-88
2023/09/15 05:32:07;;;;;;;29.20;19.00;;;;;;;26.66;100.00;100707.41;106169;1258;59628;-89
2023/09/15 05:34:35;;;;;;;32.40;20.80;;;;;;;26.64;100.00;100708.04;105942;1257;62860;-85
2023/09/15 05:37:03;;;;;;;31.60;21.20;;;;;;;26.60;100.00;100712.45;105976;1261;59748;-87
2023/09/15 05:39:31;;;;;;;28.20;20.30;;;;;;;26.61;100.00;100714.63;106162;1257;63764;-87
2023/09/15 05:42:00;;;;;;;27.40;19.60;;;;;;;26.63;100.00;100720.10;106041;1260;59608;-89
2023/09/15 05:44:28;;;;;;;26.50;19.80;;;;;;;26.62;100.00;100723.14;106022;1258;59321;-89
2023/09/15 05:46:56;;;;;;;32.40;19.70;;;;;;;26.47;100.00;100725.24;106200;1259;62880;-90
2023/09/15 05:49:24;;;;;;;29.10;19.50;;;;;;;26.47;100.00;100731.33;106266;1257;68379;-90
2023/09/15 05:51:53;;;;;;;26.50;19.40;;;;;;;26.56;100.00;100734.05;106097;1259;63775;-90
2023/09/15 05:54:20;;;;;;;26.40;19.90;;;;;;;26.61;100.00;100734.24;106016;1257;59525;-90
2023/09/15 05:56:48;;;;;;;29.80;19.50;;;;;;;26.50;100.00;100736.19;106068;1258;59649;-90
2023/09/15 05:59:16;;;;;;;28.60;19.60;;;;;;;26.64;100.00;100738.14;105941;1257;62870;-90
2023/09/15 06:01:47;;;;;;;29.80;20.40;;;;;;;26.84;100.00;100733.48;106116;1263;59717;-90
2023/09/15 06:04:15;;;;;;;32.30;21.50;;;;;;;26.77;100.00;100740.04;106154;1258;63195;-90
2023/09/15 06:06:43;;;;;;;29.80;20.70;;;;;;;26.74;100.00;100745.70;106087;1257;60523;-87
2023/09/15 06:09:11;;;;;;;32.40;22.10;;;;;;;26.83;100.00;100743.73;106112;1263;60417;-86
2023/09/15 06:11:39;;;;;;;31.00;21.10;;;;;;;26.93;100.00;100741.35;106160;1263;63687;-91
2023/09/15 06:14:07;;;;;;;29.20;20.70;;;;;;;27.01;100.00;100744.79;106243;1257;60520;-86
2023/09/15 06:16:36;;;;;;;31.00;21.10;;;;;;;27.20;100.00;100745.25;106029;1257;63689;-89
2023/09/15 06:19:04;;;;;;;30.20;20.60;;;;;;;27.22;100.00;100748.23;106191;1256;60435;-90
2023/09/15 06:21:32;;;;;;;26.00;19.10;;;;;;;27.28;100.00;100753.12;106168;1259;60369;-91
2023/09/15 06:24:00;;;;;;;30.00;20.00;;;;;;;27.32;100.00;100752.02;106116;1257;63730;-86
2023/09/15 06:26:28;;;;;;;28.60;19.90;;;;;;;27.50;100.00;100751.38;106169;1259;60284;-89
2023/09/15 06:28:57;;;;;;;30.20;20.00;;;;;;;27.66;100.00;100747.41;106187;1261;63705;-90
2023/09/15 06:31:25;;;;;;;28.30;20.80;;;;;;;27.74;100.00;100747.09;106290;1259;60431;-87
2023/09/15 06:33:52;;;;;;;32.00;21.30;;;;;;;27.92;100.00;100749.95;106185;1265;60411;-86
2023/09/15 06:36:21;;;;;;;29.50;19.80;;;;;;;28.09;100.00;100750.71;106328;1263;63689;-90
2023/09/15 06:38:49;;;;;;;23.50;17.30;;;;;;;28.11;100.00;100747.60;106206;1263;60510;-91
2023/09/15 06:41:17;;;;;;;23.50;17.20;;;;;;;28.36;100.00;100747.50;106090;1257;62471;-89
2023/09/15 06:43:45;;;;;;;22.10;16.00;;;;;;;28.44;100.00;100752.12;106423;1258;60421;-87
2023/09/15 06:46:15;;;;;;;22.60;15.00;;;;;;;28.49;100.00;100756.25;106068;1257;60426;-90
2023/09/15 06:48:43;;;;;;;20.70;14.20;;;;;;;28.59;100.00;100755.81;106027;1257;66333;-86
2023/09/15 06:51:11;;;;;;;18.70;13.80;;;;;;;28.61;100.00;100756.95;106129;1262;60885;-89
2023/09/15 06:53:39;;;;;;;19.30;13.20;;;;;;;28.53;100.00;100758.84;106202;1262;63762;-85
2023/09/15 06:56:07;;;;;;;20.70;13.80;;;;;;;28.60;100.00;100761.13;105959;1263;60568;-85
2023/09/15 06:58:34;;;;;;;17.70;12.60;;;;;;;28.55;100.00;100763.92;106246;1263;60444;-88
2023/09/15 07:01:03;;;;;;;15.80;11.70;;;;;;;28.40;100.00;100768.95;106151;1260;73947;-89
2023/09/15 07:03:31;;;;;;;14.80;11.10;;;;;;;28.42;99.18;100771.93;106072;1263;60585;-86
2023/09/15 07:05:59;;;;;;;16.10;11.30;;;;;;;28.45;98.40;100775.27;106098;1259;71441;-90
2023/09/15 07:08:27;;;;;;;13.80;10.30;;;;;;;28.42;96.43;100777.41;106220;1262;60540;-86
2023/09/15 07:10:54;;;;;;;14.60;10.60;;;;;;;28.38;96.67;100777.30;106119;1257;60441;-87
2023/09/15 07:13:22;;;;;;;16.20;9.40;;;;;;;28.48;96.10;100783.32;106176;1261;64955;-90
2023/09/15 07:15:51;;;;;;;13.80;9.70;;;;;;;28.60;95.98;100778.07;105850;1260;60403;-90
2023/09/15 07:18:18;;;;;;;12.10;9.00;;;;;;;28.75;94.28;100777.88;106071;1264;63784;-87
2023/09/15 07:20:46;;;;;;;13.10;9.60;;;;;;;28.84;93.35;100783.05;106107;1259;60398;-87
2023/09/15 07:23:14;;;;;;;14.70;9.90;;;;;;;28.93;93.53;100786.15;106208;1259;60484;-86
2023/09/15 07:25:45;;;;;;;14.20;10.00;;;;;;;29.10;94.10;100781.86;106291;1261;63648;-87
2023/09/15 07:28:13;;;;;;;15.20;9.00;;;;;;;29.28;93.35;100779.50;106067;1257;60478;-91
2023/09/15 07:30:41;;;;;;;10.50;7.70;;;;;;;29.39;91.01;100783.86;106016;1257;63930;-87
2023/09/15 07:33:09;;;;;;;11.50;7.30;;;;;;;29.37;87.80;100786.83;106151;1263;60404;-86
2023/09/15 07:35:37;;;;;;;10.30;7.60;;;;;;;29.35;85.36;100786.91;106234;1259;60412;-87
2023/09/15 07:38:05;;;;;;;11.30;7.40;;;;;;;29.31;84.95;100788.11;106215;1262;67307;-91
2023/09/15 07:40:33;;;;;;;11.50;7.60;;;;;;;29.28;85.12;100793.02;106259;1260;63374;-90
2023/09/15 07:43:01;;;;;;;12.60;7.60;;;;;;;29.33;83.91;100792.62;106240;1259;63711;-91
2023/09/15 07:45:29;;;;;;;11.40;8.00;;;;;;;29.42;84.16;100791.19;106152;1259;60435;-86
2023/09/15 07:47:57;;;;;;;9.10;7.10;;;;;;;29.53;85.44;100792.39;106208;1260;60824;-88
2023/09/15 07:50:25;;;;;;;11.80;7.80;;;;;;;29.71;84.13;100790.98;106300;1260;67143;-91
2023/09/15 07:52:53;;;;;;;10.30;7.70;;;;;;;29.86;83.54;100793.88;106346;1261;60290;-88
2023/09/15 07:55:23;;;;;;;13.40;8.90;;;;;;;30.02;82.27;100799.49;106094;1261;63781;-87
2023/09/15 07:57:51;;;;;;;12.10;8.20;;;;;;;30.08;80.95;100794.48;106084;1263;60384;-91
2023/09/15 08:00:19;;;;;;;14.80;8.80;;;;;;;30.11;79.77;100804.23;106194;1260;60601;-88
2023/09/15 08:02:47;;;;;;;13.60;9.30;;;;;;;30.14;79.07;100804.39;106122;1257;64977;-91
2023/09/15 08:05:15;;;;;;;11.20;9.20;;;;;;;30.26;78.19;100809.05;106258;1266;60300;-88
2023/09/15 08:07:46;;;;;;;12.60;9.30;;;;;;;30.34;76.86;100811.05;106255;1269;63747;-91
2023/09/15 08:10:14;;;;;;;14.90;9.50;;;;;;;30.37;76.39;100814.34;106174;1263;60575;-90
2023/09/15 08:12:42;;;;;;;12.50;9.90;;;;;;;30.50;76.54;100814.15;106259;1264;60320;-88
2023/09/15 08:15:10;;;;;;;13.40;9.70;;;;;;;30.45;77.41;100820.12;106420;1257;67217;-88
2023/09/15 08:17:38;;;;;;;13.90;9.70;;;;;;;30.32;78.66;100821.36;106195;1258;60799;-91
2023/09/15 08:20:06;;;;;;;12.80;9.60;;;;;;;30.27;78.20;100819.69;106110;1263;67687;-87
2023/09/15 08:22:37;;;;;;;14.30;11.00;;;;;;;30.25;77.21;100820.65;106339;1260;60886;-88
2023/09/15 08:25:06;;;;;;;14.40;9.90;;;;;;;30.25;76.42;100822.02;106357;1257;60525;-88
2023/09/15 08:27:35;;;;;;;14.30;10.10;;;;;;;30.23;76.76;100825.80;106559;1261;65756;-90
2023/09/15 08:30:03;;;;;;;14.20;9.70;;;;;;;30.24;77.36;100826.36;106223;1262;62213;-88
2023/09/15 08:32:31;;;;;;;13.60;9.90;;;;;;;30.35;76.83;100827.73;106082;1265;64736;-88
2023/09/15 08:34:59;;;;;;;13.80;9.90;;;;;;;30.49;75.54;100826.25;106007;1263;60535;-87
2023/09/15 08:37:27;;;;;;;14.90;10.60;;;;;;;30.58;74.07;100833.55;106461;1263;60520;-88
2023/09/15 08:39:55;;;;;;;15.40;11.20;;;;;;;30.47;73.03;100838.96;106173;1257;66942;-87
2023/09/15 08:42:25;;;;;;;17.20;10.60;;;;;;;30.30;73.81;100839.02;106198;1256;61870;-90
2023/09/15 08:44:53;;;;;;;15.10;10.50;;;;;;;30.23;73.49;100842.31;106134;1264;66193;-89
2023/09/15 08:47:21;;;;;;;13.50;10.40;;;;;;;30.19;75.20;100844.55;106128;1261;60768;-88
2023/09/15 08:49:49;;;;;;;15.50;10.60;;;;;;;30.25;75.18;100848.27;106258;1263;60538;-88
2023/09/15 08:52:17;;;;;;;16.70;11.20;;;;;;;30.30;75.52;100849.80;106168;1263;65003;-88
2023/09/15 08:54:45;;;;;;;15.50;11.00;;;;;;;30.37;75.06;100852.45;106242;1263;63194;-87
2023/09/15 08:57:14;;;;;;;15.70;11.10;;;;;;;30.43;74.86;100856.46;106293;1262;63731;-90
2023/09/15 08:59:42;;;;;;;14.10;10.80;;;;;;;30.39;74.85;100854.05;106065;1268;59283;-89
2023/09/15 09:02:11;;;;;;;15.80;11.30;;;;;;;30.39;75.38;100854.30;106036;1265;60801;-86
2023/09/15 09:04:39;;;;;;;14.70;10.60;;;;;;;30.43;74.62;100858.73;106316;1260;67276;-90
2023/09/15 09:07:07;;;;;;;13.30;10.60;;;;;;;30.50;73.81;100856.04;106315;1263;62587;-90
2023/09/15 09:09:36;;;;;;;17.30;10.60;;;;;;;30.55;72.35;100856.76;106222;1263;65588;-90
2023/09/15 09:12:04;;;;;;;15.10;10.50;;;;;;;30.55;72.79;100858.28;106024;1263;60413;-87
2023/09/15 09:14:32;;;;;;;15.10;10.80;;;;;;;30.61;72.02;100859.96;106163;1260;60518;-87
2023/09/15 09:17:00;;;;;;;18.20;11.60;;;;;;;30.63;71.33;100862.45;106006;1256;65665;-87
2023/09/15 09:19:39;;;;;;;15.70;10.50;;;;;;;30.52;71.56;100864.49;106178;1257;71527;-88
2023/09/15 09:22:07;;;;;;;16.50;11.50;;;;;;;30.46;71.33;100862.33;105978;1262;65785;-90
2023/09/15 09:24:36;;;;;;;14.20;10.90;;;;;;;30.42;71.44;100863.23;106067;1263;60356;-89
2023/09/15 09:27:10;;;;;;;16.40;10.70;;;;;;;30.40;71.62;100863.48;106063;1264;60289;-87
2023/09/15 09:29:38;;;;;;;14.00;10.60;;;;;;;30.30;72.52;100867.77;106245;1256;66967;-88
2023/09/15 09:32:06;;;;;;;16.40;10.90;;;;;;;30.30;72.73;100872.11;106003;1262;60521;-90
2023/09/15 09:34:34;;;;;;;15.40;11.30;;;;;;;30.34;73.15;100871.46;106045;1262;66056;-89
2023/09/15 09:37:15;;;;;;;16.40;11.40;;;;;;;30.22;74.44;100872.81;106048;1263;60352;-91
2023/09/15 09:39:46;;;;;;;15.80;11.60;;;;;;;30.06;74.36;100872.27;106005;1261;60381;-87
2023/09/15 09:42:14;;;;;;;18.80;11.70;;;;;;;29.98;75.46;100872.18;106026;1261;67151;-88
2023/09/15 09:44:41;;;;;;;14.40;10.20;;;;;;;29.89;77.83;100873.86;105915;1257;60899;-87
2023/09/15 09:47:09;;;;;;;16.50;12.00;;;;;;;29.99;78.99;100870.16;106128;1257;65933;-87
2023/09/15 09:49:39;;;;;;;17.70;12.50;;;;;;;30.05;78.47;100869.91;105978;1264;60355;-87
2023/09/15 09:52:07;;;;;;;19.20;13.50;;;;;;;30.01;77.17;100869.67;106108;1260;60503;-87
2023/09/15 09:54:34;;;;;;;18.90;13.40;;;;;;;29.97;75.86;100873.63;106221;1257;65081;-87
2023/09/15 09:57:03;;;;;;;20.60;13.60;;;;;;;29.95;75.82;100874.11;106233;1261;63411;-90
2023/09/15 09:59:31;;;;;;;18.40;13.40;;;;;;;29.91;76.40;100869.68;106079;1262;65677;-89
2023/09/15 10:01:58;;;;;;;17.60;11.80;;;;;;;29.79;78.33;100870.15;106463;1260;60490;-90
2023/09/15 10:04:26;;;;;;;34.50;22.10;;;;;;;29.66;79.67;100864.98;106047;1261;60411;-90
2023/09/15 10:06:54;;;;;;;40.40;22.90;;;;;;;29.55;80.97;100867.37;106209;1263;68205;-89
2023/09/15 10:09:22;;;;;;;65.60;37.00;;;;;;;29.45;82.48;100871.05;106217;1262;61869;-90
2023/09/15 10:11:50;;;;;;;52.00;30.80;;;;;;;29.47;83.29;100870.89;106112;1260;63712;-90
2023/09/15 10:14:19;;;;;;;90.80;43.20;;;;;;;29.57;82.33;100874.92;106018;1264;60517;-90
2023/09/15 10:16:46;;;;;;;19.20;13.00;;;;;;;29.75;81.70;100877.14;106087;1264;60525;-89
2023/09/15 10:19:14;;;;;;;28.60;16.30;;;;;;;30.04;80.04;100873.30;105996;1261;63652;-87
2023/09/15 10:21:44;;;;;;;25.10;15.30;;;;;;;30.27;77.73;100869.45;106171;1257;62240;-87
2023/09/15 10:24:12;;;;;;;89.60;50.10;;;;;;;30.33;77.06;100870.48;106065;1260;62464;-89
2023/09/15 10:26:44;;;;;;;42.50;26.70;;;;;;;30.43;76.28;100863.63;106142;1257;60661;-87
2023/09/15 10:29:15;;;;;;;15.60;11.30;;;;;;;30.58;75.23;100858.52;106243;1263;60380;-90
2023/09/15 10:31:46;;;;;;;15.80;11.30;;;;;;;30.72;74.07;100864.04;106202;1263;64879;-88
2023/09/15 10:34:14;;;;;;;14.30;10.00;;;;;;;30.82;72.60;100866.70;106176;1263;60442;-87
2023/09/15 10:36:43;;;;;;;15.00;11.20;;;;;;;30.87;70.66;100867.89;106188;1256;64741;-89
2023/09/15 10:39:16;;;;;;;17.20;10.60;;;;;;;30.85;69.52;100872.00;106073;1260;59241;-91
2023/09/15 10:41:45;;;;;;;15.30;10.00;;;;;;;30.90;68.75;100873.19;106201;1259;60389;-88
2023/09/15 10:44:13;;;;;;;12.40;9.40;;;;;;;30.84;68.72;100868.20;106175;1257;66880;-87
2023/09/15 10:46:42;;;;;;;13.40;9.40;;;;;;;30.83;68.01;100874.27;106187;1263;59635;-87
2023/09/15 10:49:18;;;;;;;13.60;9.80;;;;;;;30.80;68.11;100874.98;106072;1258;65757;-87
2023/09/15 10:52:04;;;;;;;13.80;9.20;;;;;;;30.77;68.28;100873.85;106286;1262;60429;-86
2023/09/15 10:54:33;;;;;;;15.50;9.90;;;;;;;30.72;68.93;100876.37;106366;1258;60489;-87
2023/09/15 10:57:01;;;;;;;13.60;9.50;;;;;;;30.62;70.32;100876.40;106284;1257;65876;-89
2023/09/15 10:59:29;;;;;;;13.80;9.60;;;;;;;30.60;70.52;100877.38;106267;1258;60541;-89
2023/09/15 11:01:57;;;;;;;12.50;9.30;;;;;;;30.63;70.46;100875.98;106243;1264;63708;-87
2023/09/15 11:04:27;;;;;;;13.00;8.60;;;;;;;30.51;70.27;100883.35;106193;1263;60483;-89
2023/09/15 11:06:55;;;;;;;12.70;8.20;;;;;;;30.38;70.62;100886.91;106142;1257;60384;-88
2023/09/15 11:09:25;;;;;;;14.20;8.20;;;;;;;30.33;71.30;100893.52;106180;1260;64189;-89
2023/09/15 11:11:53;;;;;;;18.10;10.00;;;;;;;30.25;71.60;100893.19;106199;1261;60473;-87
2023/09/15 11:14:24;;;;;;;11.70;8.00;;;;;;;30.17;72.71;100894.72;106288;1258;65918;-89